sensor_id;sensor_type;location;lat;lon;timestamp;P1;durP1;ratioP1;P2;durP2;ratioP2
55423;SDS011;41294;42.666;23.350;2022-08-18T00:00:09;6.20;;;5.05;;
55423;SDS011;41294;42.666;23.350;2022-08-18T00:02:38;6.43;;;5.10;;
55423;SDS011;41294;42.666;23.350;2022-08-18T00:05:06;6.70;;;5.35;;
55423;SDS011;41294;42.666;23.350;2022-08-18T00:07:33;11.30;;;5.90;;
55423;SDS011;41294;42.666;23.350;2022-08-18T00:09:59;6.70;;;5.20;;
55423;SDS011;41294;42.666;23.350;2022-08-18T00:12:28;8.75;;;5.45;;
55423;SDS011;41294;42.666;23.350;2022-08-18T00:14:59;11.02;;;5.80;;
55423;SDS011;41294;42.666;23.350;2022-08-18T00:17:29;7.40;;;5.45;;
55423;SDS011;41294;42.666;23.350;2022-08-18T00:19:57;6.65;;;5.40;;
55423;SDS011;41294;42.666;23.350;2022-08-18T00:22:23;6.38;;;5.35;;
55423;SDS011;41294;42.666;23.350;2022-08-18T00:24:52;6.00;;;4.88;;
55423;SDS011;41294;42.666;23.350;2022-08-18T00:27:24;6.90;;;5.35;;
55423;SDS011;41294;42.666;23.350;2022-08-18T00:29:51;8.30;;;5.60;;
55423;SDS011;41294;42.666;23.350;2022-08-18T00:32:20;6.18;;;5.57;;
55423;SDS011;41294;42.666;23.350;2022-08-18T00:34:53;6.03;;;5.43;;
55423;SDS011;41294;42.666;23.350;2022-08-18T00:37:19;7.43;;;5.60;;
55423;SDS011;41294;42.666;23.350;2022-08-18T00:39:46;6.28;;;5.50;;
55423;SDS011;41294;42.666;23.350;2022-08-18T00:42:45;7.93;;;5.28;;
55423;SDS011;41294;42.666;23.350;2022-08-18T00:45:08;6.38;;;5.20;;
55423;SDS011;41294;42.666;23.350;2022-08-18T00:47:36;6.75;;;5.65;;
55423;SDS011;41294;42.666;23.350;2022-08-18T00:50:02;7.18;;;5.75;;
55423;SDS011;41294;42.666;23.350;2022-08-18T00:52:28;6.28;;;5.03;;
55423;SDS011;41294;42.666;23.350;2022-08-18T00:54:54;7.13;;;5.22;;
55423;SDS011;41294;42.666;23.350;2022-08-18T00:57:20;7.78;;;5.70;;
55423;SDS011;41294;42.666;23.350;2022-08-18T00:59:56;6.70;;;5.18;;
55423;SDS011;41294;42.666;23.350;2022-08-18T01:02:33;5.75;;;5.20;;
55423;SDS011;41294;42.666;23.350;2022-08-18T01:05:09;7.80;;;5.70;;
55423;SDS011;41294;42.666;23.350;2022-08-18T01:07:42;8.15;;;5.50;;
55423;SDS011;41294;42.666;23.350;2022-08-18T01:10:11;7.18;;;5.70;;
55423;SDS011;41294;42.666;23.350;2022-08-18T01:12:41;6.20;;;5.60;;
55423;SDS011;41294;42.666;23.350;2022-08-18T01:15:07;10.18;;;5.82;;
55423;SDS011;41294;42.666;23.350;2022-08-18T01:17:33;8.25;;;5.88;;
55423;SDS011;41294;42.666;23.350;2022-08-18T01:20:19;7.03;;;5.63;;
55423;SDS011;41294;42.666;23.350;2022-08-18T01:23:11;7.68;;;5.43;;
55423;SDS011;41294;42.666;23.350;2022-08-18T01:25:40;7.18;;;6.25;;
55423;SDS011;41294;42.666;23.350;2022-08-18T01:28:28;6.40;;;5.78;;
55423;SDS011;41294;42.666;23.350;2022-08-18T01:30:56;6.93;;;5.47;;
55423;SDS011;41294;42.666;23.350;2022-08-18T01:33:30;7.53;;;5.63;;
55423;SDS011;41294;42.666;23.350;2022-08-18T01:36:12;9.95;;;5.75;;
55423;SDS011;41294;42.666;23.350;2022-08-18T01:38:41;7.18;;;5.63;;
55423;SDS011;41294;42.666;23.350;2022-08-18T01:41:11;7.00;;;5.80;;
55423;SDS011;41294;42.666;23.350;2022-08-18T01:43:37;6.90;;;5.70;;
55423;SDS011;41294;42.666;23.350;2022-08-18T01:46:03;6.90;;;5.93;;
55423;SDS011;41294;42.666;23.350;2022-08-18T01:48:30;6.75;;;5.60;;
55423;SDS011;41294;42.666;23.350;2022-08-18T01:50:59;7.85;;;5.90;;
55423;SDS011;41294;42.666;23.350;2022-08-18T01:53:25;9.68;;;6.35;;
55423;SDS011;41294;42.666;23.350;2022-08-18T01:55:51;12.10;;;5.82;;
55423;SDS011;41294;42.666;23.350;2022-08-18T01:58:17;7.75;;;6.28;;
55423;SDS011;41294;42.666;23.350;2022-08-18T02:00:43;10.23;;;6.32;;
55423;SDS011;41294;42.666;23.350;2022-08-18T02:03:10;7.13;;;6.10;;
55423;SDS011;41294;42.666;23.350;2022-08-18T02:05:39;10.23;;;6.13;;
55423;SDS011;41294;42.666;23.350;2022-08-18T02:08:11;10.50;;;7.07;;
55423;SDS011;41294;42.666;23.350;2022-08-18T02:10:37;7.78;;;6.72;;
55423;SDS011;41294;42.666;23.350;2022-08-18T02:13:04;12.38;;;6.53;;
55423;SDS011;41294;42.666;23.350;2022-08-18T02:15:30;9.57;;;6.72;;
55423;SDS011;41294;42.666;23.350;2022-08-18T02:17:56;12.38;;;7.10;;
55423;SDS011;41294;42.666;23.350;2022-08-18T02:20:22;8.90;;;6.22;;
55423;SDS011;41294;42.666;23.350;2022-08-18T02:22:48;8.30;;;6.40;;
55423;SDS011;41294;42.666;23.350;2022-08-18T02:25:14;13.95;;;6.75;;
55423;SDS011;41294;42.666;23.350;2022-08-18T02:27:41;10.50;;;6.93;;
55423;SDS011;41294;42.666;23.350;2022-08-18T02:30:08;10.55;;;6.93;;
55423;SDS011;41294;42.666;23.350;2022-08-18T02:32:36;11.77;;;6.75;;
55423;SDS011;41294;42.666;23.350;2022-08-18T02:35:01;10.93;;;7.40;;
55423;SDS011;41294;42.666;23.350;2022-08-18T02:37:28;9.18;;;7.00;;
55423;SDS011;41294;42.666;23.350;2022-08-18T02:39:55;9.40;;;6.93;;
55423;SDS011;41294;42.666;23.350;2022-08-18T02:42:21;8.30;;;6.80;;
55423;SDS011;41294;42.666;23.350;2022-08-18T02:44:46;11.55;;;7.60;;
55423;SDS011;41294;42.666;23.350;2022-08-18T02:47:12;10.02;;;6.88;;
55423;SDS011;41294;42.666;23.350;2022-08-18T02:49:37;10.55;;;7.07;;
55423;SDS011;41294;42.666;23.350;2022-08-18T02:52:03;9.23;;;6.93;;
55423;SDS011;41294;42.666;23.350;2022-08-18T02:54:29;8.82;;;6.60;;
55423;SDS011;41294;42.666;23.350;2022-08-18T02:56:54;9.07;;;6.95;;
55423;SDS011;41294;42.666;23.350;2022-08-18T02:59:22;10.27;;;7.15;;
55423;SDS011;41294;42.666;23.350;2022-08-18T03:01:54;9.23;;;7.00;;
55423;SDS011;41294;42.666;23.350;2022-08-18T03:04:21;9.88;;;6.57;;
55423;SDS011;41294;42.666;23.350;2022-08-18T03:06:51;8.95;;;7.38;;
55423;SDS011;41294;42.666;23.350;2022-08-18T03:09:21;14.68;;;7.30;;
55423;SDS011;41294;42.666;23.350;2022-08-18T03:11:47;9.90;;;7.00;;
55423;SDS011;41294;42.666;23.350;2022-08-18T03:14:13;8.98;;;6.65;;
55423;SDS011;41294;42.666;23.350;2022-08-18T03:16:43;10.18;;;6.60;;
55423;SDS011;41294;42.666;23.350;2022-08-18T03:19:10;10.75;;;7.15;;
55423;SDS011;41294;42.666;23.350;2022-08-18T03:21:38;8.45;;;7.05;;
55423;SDS011;41294;42.666;23.350;2022-08-18T03:24:04;8.10;;;7.10;;
55423;SDS011;41294;42.666;23.350;2022-08-18T03:26:30;9.65;;;7.25;;
55423;SDS011;41294;42.666;23.350;2022-08-18T03:28:56;8.95;;;6.65;;
55423;SDS011;41294;42.666;23.350;2022-08-18T03:31:24;12.35;;;6.32;;
55423;SDS011;41294;42.666;23.350;2022-08-18T03:33:51;7.70;;;6.68;;
55423;SDS011;41294;42.666;23.350;2022-08-18T03:36:19;10.77;;;6.88;;
55423;SDS011;41294;42.666;23.350;2022-08-18T03:38:47;9.00;;;6.63;;
55423;SDS011;41294;42.666;23.350;2022-08-18T03:41:14;12.25;;;6.90;;
55423;SDS011;41294;42.666;23.350;2022-08-18T03:43:41;9.02;;;6.40;;
55423;SDS011;41294;42.666;23.350;2022-08-18T03:46:09;10.00;;;7.18;;
55423;SDS011;41294;42.666;23.350;2022-08-18T03:48:36;13.05;;;6.72;;
55423;SDS011;41294;42.666;23.350;2022-08-18T03:53:51;8.80;;;6.70;;
55423;SDS011;41294;42.666;23.350;2022-08-18T03:56:19;9.40;;;6.47;;
55423;SDS011;41294;42.666;23.350;2022-08-18T03:58:52;8.75;;;6.38;;
55423;SDS011;41294;42.666;23.350;2022-08-18T04:01:22;11.50;;;6.63;;
55423;SDS011;41294;42.666;23.350;2022-08-18T04:03:51;7.95;;;6.20;;
55423;SDS011;41294;42.666;23.350;2022-08-18T04:06:25;8.43;;;6.35;;
55423;SDS011;41294;42.666;23.350;2022-08-18T04:08:54;9.23;;;5.70;;
55423;SDS011;41294;42.666;23.350;2022-08-18T04:11:21;9.63;;;6.50;;
55423;SDS011;41294;42.666;23.350;2022-08-18T04:13:47;10.05;;;6.70;;
55423;SDS011;41294;42.666;23.350;2022-08-18T04:16:13;8.80;;;6.00;;
55423;SDS011;41294;42.666;23.350;2022-08-18T04:18:39;6.65;;;5.95;;
55423;SDS011;41294;42.666;23.350;2022-08-18T04:21:06;27.67;;;7.97;;
55423;SDS011;41294;42.666;23.350;2022-08-18T04:23:34;14.90;;;6.82;;
55423;SDS011;41294;42.666;23.350;2022-08-18T04:26:02;17.60;;;6.60;;
55423;SDS011;41294;42.666;23.350;2022-08-18T04:28:29;14.32;;;6.22;;
55423;SDS011;41294;42.666;23.350;2022-08-18T04:30:55;9.60;;;5.85;;
55423;SDS011;41294;42.666;23.350;2022-08-18T04:33:23;11.50;;;5.85;;
55423;SDS011;41294;42.666;23.350;2022-08-18T04:35:52;10.68;;;5.82;;
55423;SDS011;41294;42.666;23.350;2022-08-18T04:38:19;10.70;;;6.40;;
55423;SDS011;41294;42.666;23.350;2022-08-18T04:40:45;16.73;;;6.57;;
55423;SDS011;41294;42.666;23.350;2022-08-18T04:43:11;10.80;;;6.57;;
55423;SDS011;41294;42.666;23.350;2022-08-18T04:45:45;12.55;;;6.53;;
55423;SDS011;41294;42.666;23.350;2022-08-18T04:48:11;9.55;;;6.20;;
55423;SDS011;41294;42.666;23.350;2022-08-18T04:50:37;10.65;;;7.13;;
55423;SDS011;41294;42.666;23.350;2022-08-18T04:53:03;11.68;;;7.40;;
55423;SDS011;41294;42.666;23.350;2022-08-18T04:55:48;8.88;;;6.47;;
55423;SDS011;41294;42.666;23.350;2022-08-18T04:58:16;10.00;;;6.07;;
55423;SDS011;41294;42.666;23.350;2022-08-18T05:00:43;9.02;;;6.13;;
55423;SDS011;41294;42.666;23.350;2022-08-18T05:03:09;12.63;;;6.38;;
55423;SDS011;41294;42.666;23.350;2022-08-18T05:05:35;7.65;;;5.72;;
55423;SDS011;41294;42.666;23.350;2022-08-18T05:08:01;10.43;;;6.18;;
55423;SDS011;41294;42.666;23.350;2022-08-18T05:10:26;12.45;;;6.93;;
55423;SDS011;41294;42.666;23.350;2022-08-18T05:12:52;8.13;;;6.78;;
55423;SDS011;41294;42.666;23.350;2022-08-18T05:15:17;11.80;;;5.55;;
55423;SDS011;41294;42.666;23.350;2022-08-18T05:17:43;8.73;;;5.50;;
55423;SDS011;41294;42.666;23.350;2022-08-18T05:20:09;7.18;;;5.70;;
55423;SDS011;41294;42.666;23.350;2022-08-18T05:22:38;9.32;;;5.50;;
55423;SDS011;41294;42.666;23.350;2022-08-18T05:25:08;5.85;;;5.35;;
55423;SDS011;41294;42.666;23.350;2022-08-18T05:27:36;6.45;;;5.32;;
55423;SDS011;41294;42.666;23.350;2022-08-18T05:30:05;6.75;;;5.70;;
55423;SDS011;41294;42.666;23.350;2022-08-18T05:32:33;6.20;;;5.60;;
55423;SDS011;41294;42.666;23.350;2022-08-18T05:35:12;7.07;;;5.10;;
55423;SDS011;41294;42.666;23.350;2022-08-18T05:40:24;10.98;;;6.03;;
55423;SDS011;41294;42.666;23.350;2022-08-18T05:42:50;6.28;;;5.53;;
55423;SDS011;41294;42.666;23.350;2022-08-18T05:45:17;9.82;;;6.20;;
55423;SDS011;41294;42.666;23.350;2022-08-18T05:47:44;14.35;;;6.82;;
55423;SDS011;41294;42.666;23.350;2022-08-18T05:50:15;7.13;;;6.00;;
55423;SDS011;41294;42.666;23.350;2022-08-18T05:55:13;14.77;;;6.97;;
55423;SDS011;41294;42.666;23.350;2022-08-18T05:58:02;7.15;;;5.88;;
55423;SDS011;41294;42.666;23.350;2022-08-18T06:00:39;7.82;;;6.28;;
55423;SDS011;41294;42.666;23.350;2022-08-18T06:03:19;10.98;;;6.88;;
55423;SDS011;41294;42.666;23.350;2022-08-18T06:05:57;9.35;;;6.57;;
55423;SDS011;41294;42.666;23.350;2022-08-18T06:08:31;8.43;;;6.50;;
55423;SDS011;41294;42.666;23.350;2022-08-18T06:11:09;10.07;;;7.50;;
55423;SDS011;41294;42.666;23.350;2022-08-18T06:13:36;9.10;;;7.00;;
55423;SDS011;41294;42.666;23.350;2022-08-18T06:16:04;15.25;;;6.88;;
55423;SDS011;41294;42.666;23.350;2022-08-18T06:18:46;10.85;;;6.82;;
55423;SDS011;41294;42.666;23.350;2022-08-18T06:21:41;30.35;;;22.33;;
55423;SDS011;41294;42.666;23.350;2022-08-18T06:24:28;12.73;;;8.35;;
55423;SDS011;41294;42.666;23.350;2022-08-18T06:27:10;9.68;;;7.57;;
55423;SDS011;41294;42.666;23.350;2022-08-18T06:38:27;11.48;;;7.70;;
55423;SDS011;41294;42.666;23.350;2022-08-18T06:41:18;11.38;;;7.68;;
55423;SDS011;41294;42.666;23.350;2022-08-18T06:44:08;14.10;;;8.25;;
55423;SDS011;41294;42.666;23.350;2022-08-18T06:46:52;10.85;;;7.15;;
55423;SDS011;41294;42.666;23.350;2022-08-18T06:49:42;8.73;;;6.05;;
55423;SDS011;41294;42.666;23.350;2022-08-18T06:55:40;8.70;;;6.20;;
55423;SDS011;41294;42.666;23.350;2022-08-18T07:03:18;10.60;;;6.70;;
55423;SDS011;41294;42.666;23.350;2022-08-18T07:10:57;9.40;;;5.93;;
55423;SDS011;41294;42.666;23.350;2022-08-18T07:13:53;9.50;;;5.38;;
55423;SDS011;41294;42.666;23.350;2022-08-18T07:16:22;8.30;;;5.90;;
55423;SDS011;41294;42.666;23.350;2022-08-18T07:18:49;8.18;;;4.93;;
55423;SDS011;41294;42.666;23.350;2022-08-18T07:21:27;7.65;;;5.40;;
55423;SDS011;41294;42.666;23.350;2022-08-18T07:24:01;6.95;;;4.57;;
55423;SDS011;41294;42.666;23.350;2022-08-18T07:26:56;4.72;;;3.88;;
55423;SDS011;41294;42.666;23.350;2022-08-18T07:29:30;7.72;;;4.72;;
55423;SDS011;41294;42.666;23.350;2022-08-18T07:32:00;12.05;;;4.95;;
55423;SDS011;41294;42.666;23.350;2022-08-18T07:34:34;6.40;;;4.82;;
55423;SDS011;41294;42.666;23.350;2022-08-18T07:37:09;5.68;;;4.50;;
55423;SDS011;41294;42.666;23.350;2022-08-18T07:39:43;10.10;;;5.00;;
55423;SDS011;41294;42.666;23.350;2022-08-18T07:45:15;5.47;;;4.63;;
55423;SDS011;41294;42.666;23.350;2022-08-18T07:50:17;10.35;;;5.47;;
55423;SDS011;41294;42.666;23.350;2022-08-18T07:52:44;5.72;;;4.63;;
55423;SDS011;41294;42.666;23.350;2022-08-18T07:55:29;5.88;;;4.50;;
55423;SDS011;41294;42.666;23.350;2022-08-18T08:03:24;4.60;;;4.05;;
55423;SDS011;41294;42.666;23.350;2022-08-18T08:06:18;5.97;;;4.93;;
55423;SDS011;41294;42.666;23.350;2022-08-18T08:13:56;12.25;;;5.00;;
55423;SDS011;41294;42.666;23.350;2022-08-18T08:16:37;6.40;;;4.63;;
55423;SDS011;41294;42.666;23.350;2022-08-18T08:19:28;4.82;;;4.28;;
55423;SDS011;41294;42.666;23.350;2022-08-18T08:27:33;8.18;;;4.38;;
55423;SDS011;41294;42.666;23.350;2022-08-18T08:30:04;8.40;;;4.05;;
55423;SDS011;41294;42.666;23.350;2022-08-18T08:35:32;5.38;;;4.05;;
55423;SDS011;41294;42.666;23.350;2022-08-18T08:38:08;6.28;;;4.38;;
55423;SDS011;41294;42.666;23.350;2022-08-18T08:43:14;7.30;;;4.07;;
55423;SDS011;41294;42.666;23.350;2022-08-18T08:46:18;8.25;;;4.35;;
55423;SDS011;41294;42.666;23.350;2022-08-18T08:48:51;4.60;;;4.20;;
55423;SDS011;41294;42.666;23.350;2022-08-18T08:51:28;7.70;;;4.10;;
55423;SDS011;41294;42.666;23.350;2022-08-18T08:54:04;5.95;;;5.07;;
55423;SDS011;41294;42.666;23.350;2022-08-18T08:56:32;5.90;;;4.35;;
55423;SDS011;41294;42.666;23.350;2022-08-18T08:59:04;5.35;;;3.88;;
55423;SDS011;41294;42.666;23.350;2022-08-18T09:20:55;5.10;;;4.60;;
55423;SDS011;41294;42.666;23.350;2022-08-18T09:23:49;5.90;;;3.60;;
55423;SDS011;41294;42.666;23.350;2022-08-18T09:26:52;4.50;;;4.10;;
55423;SDS011;41294;42.666;23.350;2022-08-18T09:34:48;8.18;;;4.63;;
55423;SDS011;41294;42.666;23.350;2022-08-18T09:37:27;5.47;;;3.45;;
55423;SDS011;41294;42.666;23.350;2022-08-18T09:40:35;6.32;;;3.92;;
55423;SDS011;41294;42.666;23.350;2022-08-18T09:43:30;9.82;;;3.80;;
55423;SDS011;41294;42.666;23.350;2022-08-18T09:46:01;7.15;;;4.05;;
55423;SDS011;41294;42.666;23.350;2022-08-18T09:48:36;7.72;;;3.92;;
55423;SDS011;41294;42.666;23.350;2022-08-18T09:56:12;5.43;;;3.67;;
55423;SDS011;41294;42.666;23.350;2022-08-18T10:06:41;6.30;;;4.97;;
55423;SDS011;41294;42.666;23.350;2022-08-18T10:11:49;4.10;;;3.70;;
55423;SDS011;41294;42.666;23.350;2022-08-18T10:20:34;4.45;;;4.00;;
55423;SDS011;41294;42.666;23.350;2022-08-18T10:23:08;4.45;;;3.83;;
55423;SDS011;41294;42.666;23.350;2022-08-18T10:25:38;9.20;;;4.22;;
55423;SDS011;41294;42.666;23.350;2022-08-18T10:28:07;6.65;;;4.18;;
55423;SDS011;41294;42.666;23.350;2022-08-18T10:33:02;5.32;;;4.00;;
55423;SDS011;41294;42.666;23.350;2022-08-18T10:38:10;6.72;;;4.00;;
55423;SDS011;41294;42.666;23.350;2022-08-18T10:40:41;6.40;;;3.95;;
55423;SDS011;41294;42.666;23.350;2022-08-18T10:43:18;5.18;;;4.05;;
55423;SDS011;41294;42.666;23.350;2022-08-18T10:45:59;4.25;;;3.40;;
55423;SDS011;41294;42.666;23.350;2022-08-18T10:48:25;5.13;;;3.67;;
55423;SDS011;41294;42.666;23.350;2022-08-18T10:53:50;4.10;;;3.80;;
55423;SDS011;41294;42.666;23.350;2022-08-18T10:56:46;7.22;;;3.92;;
55423;SDS011;41294;42.666;23.350;2022-08-18T10:59:23;7.25;;;4.35;;
55423;SDS011;41294;42.666;23.350;2022-08-18T11:05:09;4.88;;;3.83;;
55423;SDS011;41294;42.666;23.350;2022-08-18T11:07:40;5.30;;;3.60;;
55423;SDS011;41294;42.666;23.350;2022-08-18T11:10:23;4.07;;;3.65;;
55423;SDS011;41294;42.666;23.350;2022-08-18T11:13:09;6.15;;;3.63;;
55423;SDS011;41294;42.666;23.350;2022-08-18T11:18:40;4.13;;;3.70;;
55423;SDS011;41294;42.666;23.350;2022-08-18T11:32:01;5.10;;;3.45;;
55423;SDS011;41294;42.666;23.350;2022-08-18T11:34:46;4.80;;;3.67;;
55423;SDS011;41294;42.666;23.350;2022-08-18T11:42:52;4.63;;;3.78;;
55423;SDS011;41294;42.666;23.350;2022-08-18T11:45:22;6.53;;;3.60;;
55423;SDS011;41294;42.666;23.350;2022-08-18T11:58:38;7.40;;;3.90;;
55423;SDS011;41294;42.666;23.350;2022-08-18T12:03:56;4.50;;;3.65;;
55423;SDS011;41294;42.666;23.350;2022-08-18T12:06:32;5.45;;;3.70;;
55423;SDS011;41294;42.666;23.350;2022-08-18T12:11:32;4.25;;;3.42;;
55423;SDS011;41294;42.666;23.350;2022-08-18T12:14:16;6.15;;;3.92;;
55423;SDS011;41294;42.666;23.350;2022-08-18T12:16:44;4.60;;;3.95;;
55423;SDS011;41294;42.666;23.350;2022-08-18T12:19:11;7.07;;;3.67;;
55423;SDS011;41294;42.666;23.350;2022-08-18T12:21:41;7.35;;;4.03;;
55423;SDS011;41294;42.666;23.350;2022-08-18T12:24:23;4.40;;;3.88;;
55423;SDS011;41294;42.666;23.350;2022-08-18T12:26:51;4.25;;;3.80;;
55423;SDS011;41294;42.666;23.350;2022-08-18T12:29:17;4.70;;;3.53;;
55423;SDS011;41294;42.666;23.350;2022-08-18T12:31:44;4.97;;;3.85;;
55423;SDS011;41294;42.666;23.350;2022-08-18T12:34:11;4.10;;;3.70;;
55423;SDS011;41294;42.666;23.350;2022-08-18T12:36:36;4.55;;;3.72;;
55423;SDS011;41294;42.666;23.350;2022-08-18T12:39:03;4.47;;;3.80;;
55423;SDS011;41294;42.666;23.350;2022-08-18T12:41:29;5.68;;;4.07;;
55423;SDS011;41294;42.666;23.350;2022-08-18T12:43:55;5.75;;;3.28;;
55423;SDS011;41294;42.666;23.350;2022-08-18T12:46:20;5.32;;;3.90;;
55423;SDS011;41294;42.666;23.350;2022-08-18T12:48:46;6.75;;;3.53;;
55423;SDS011;41294;42.666;23.350;2022-08-18T12:51:12;5.07;;;3.63;;
55423;SDS011;41294;42.666;23.350;2022-08-18T12:53:40;4.28;;;3.85;;
55423;SDS011;41294;42.666;23.350;2022-08-18T12:56:07;5.35;;;3.78;;
55423;SDS011;41294;42.666;23.350;2022-08-18T12:58:47;3.97;;;3.45;;
55423;SDS011;41294;42.666;23.350;2022-08-18T13:01:14;4.00;;;3.60;;
55423;SDS011;41294;42.666;23.350;2022-08-18T13:03:40;4.32;;;3.65;;
55423;SDS011;41294;42.666;23.350;2022-08-18T13:06:05;4.50;;;4.05;;
55423;SDS011;41294;42.666;23.350;2022-08-18T13:08:30;7.40;;;4.65;;
55423;SDS011;41294;42.666;23.350;2022-08-18T13:10:56;4.45;;;3.75;;
55423;SDS011;41294;42.666;23.350;2022-08-18T13:13:24;5.07;;;4.00;;
55423;SDS011;41294;42.666;23.350;2022-08-18T13:15:49;5.07;;;3.50;;
55423;SDS011;41294;42.666;23.350;2022-08-18T13:18:18;4.35;;;3.95;;
55423;SDS011;41294;42.666;23.350;2022-08-18T13:20:43;4.07;;;3.67;;
55423;SDS011;41294;42.666;23.350;2022-08-18T13:23:09;4.13;;;3.83;;
55423;SDS011;41294;42.666;23.350;2022-08-18T13:25:34;5.18;;;3.70;;
55423;SDS011;41294;42.666;23.350;2022-08-18T13:28:00;4.63;;;4.22;;
55423;SDS011;41294;42.666;23.350;2022-08-18T13:30:26;5.30;;;3.72;;
55423;SDS011;41294;42.666;23.350;2022-08-18T13:32:51;6.28;;;3.70;;
55423;SDS011;41294;42.666;23.350;2022-08-18T13:35:17;5.38;;;3.97;;
55423;SDS011;41294;42.666;23.350;2022-08-18T13:37:42;4.32;;;3.90;;
55423;SDS011;41294;42.666;23.350;2022-08-18T13:40:08;6.70;;;3.90;;
55423;SDS011;41294;42.666;23.350;2022-08-18T13:42:45;6.40;;;4.47;;
55423;SDS011;41294;42.666;23.350;2022-08-18T13:45:17;5.95;;;3.35;;
55423;SDS011;41294;42.666;23.350;2022-08-18T13:47:45;4.97;;;3.53;;
55423;SDS011;41294;42.666;23.350;2022-08-18T13:50:12;6.03;;;3.90;;
55423;SDS011;41294;42.666;23.350;2022-08-18T13:52:38;4.20;;;3.60;;
55423;SDS011;41294;42.666;23.350;2022-08-18T13:55:05;4.82;;;4.00;;
55423;SDS011;41294;42.666;23.350;2022-08-18T13:57:35;7.55;;;3.92;;
55423;SDS011;41294;42.666;23.350;2022-08-18T14:00:03;4.50;;;3.53;;
55423;SDS011;41294;42.666;23.350;2022-08-18T14:02:31;3.42;;;3.15;;
55423;SDS011;41294;42.666;23.350;2022-08-18T14:04:57;7.45;;;3.83;;
55423;SDS011;41294;42.666;23.350;2022-08-18T14:07:22;5.55;;;3.47;;
55423;SDS011;41294;42.666;23.350;2022-08-18T14:09:48;8.02;;;3.97;;
55423;SDS011;41294;42.666;23.350;2022-08-18T14:12:16;4.05;;;3.70;;
55423;SDS011;41294;42.666;23.350;2022-08-18T14:14:44;5.78;;;3.80;;
55423;SDS011;41294;42.666;23.350;2022-08-18T14:17:10;6.57;;;3.72;;
55423;SDS011;41294;42.666;23.350;2022-08-18T14:19:35;5.80;;;3.88;;
55423;SDS011;41294;42.666;23.350;2022-08-18T14:22:19;4.93;;;3.80;;
55423;SDS011;41294;42.666;23.350;2022-08-18T14:25:03;7.53;;;4.10;;
55423;SDS011;41294;42.666;23.350;2022-08-18T14:27:48;6.35;;;4.00;;
55423;SDS011;41294;42.666;23.350;2022-08-18T14:30:14;4.10;;;3.70;;
55423;SDS011;41294;42.666;23.350;2022-08-18T14:32:40;4.47;;;3.47;;
55423;SDS011;41294;42.666;23.350;2022-08-18T14:35:07;5.13;;;3.67;;
55423;SDS011;41294;42.666;23.350;2022-08-18T14:37:34;5.47;;;4.00;;
55423;SDS011;41294;42.666;23.350;2022-08-18T14:40:00;4.20;;;3.80;;
55423;SDS011;41294;42.666;23.350;2022-08-18T14:42:26;4.70;;;3.47;;
55423;SDS011;41294;42.666;23.350;2022-08-18T14:44:51;6.20;;;3.60;;
55423;SDS011;41294;42.666;23.350;2022-08-18T14:47:17;4.82;;;4.38;;
55423;SDS011;41294;42.666;23.350;2022-08-18T14:49:42;5.05;;;3.95;;
55423;SDS011;41294;42.666;23.350;2022-08-18T14:52:10;6.43;;;4.32;;
55423;SDS011;41294;42.666;23.350;2022-08-18T14:54:36;7.15;;;4.07;;
55423;SDS011;41294;42.666;23.350;2022-08-18T14:57:02;3.80;;;3.50;;
55423;SDS011;41294;42.666;23.350;2022-08-18T14:59:35;4.38;;;3.97;;
55423;SDS011;41294;42.666;23.350;2022-08-18T15:02:01;4.40;;;4.00;;
55423;SDS011;41294;42.666;23.350;2022-08-18T15:04:27;5.20;;;4.30;;
55423;SDS011;41294;42.666;23.350;2022-08-18T15:06:53;5.07;;;4.10;;
55423;SDS011;41294;42.666;23.350;2022-08-18T15:09:18;4.25;;;3.80;;
55423;SDS011;41294;42.666;23.350;2022-08-18T15:11:44;4.38;;;3.97;;
55423;SDS011;41294;42.666;23.350;2022-08-18T15:14:09;7.03;;;3.97;;
55423;SDS011;41294;42.666;23.350;2022-08-18T15:16:35;5.57;;;3.72;;
55423;SDS011;41294;42.666;23.350;2022-08-18T15:19:01;4.70;;;4.30;;
55423;SDS011;41294;42.666;23.350;2022-08-18T15:21:28;5.80;;;4.60;;
55423;SDS011;41294;42.666;23.350;2022-08-18T15:24:12;4.78;;;4.28;;
55423;SDS011;41294;42.666;23.350;2022-08-18T15:26:56;5.38;;;4.10;;
55423;SDS011;41294;42.666;23.350;2022-08-18T15:29:23;7.53;;;4.25;;
55423;SDS011;41294;42.666;23.350;2022-08-18T15:31:49;4.03;;;3.72;;
55423;SDS011;41294;42.666;23.350;2022-08-18T15:34:15;4.50;;;4.10;;
55423;SDS011;41294;42.666;23.350;2022-08-18T15:36:41;4.50;;;4.10;;
55423;SDS011;41294;42.666;23.350;2022-08-18T15:39:07;6.70;;;4.57;;
55423;SDS011;41294;42.666;23.350;2022-08-18T15:41:36;8.13;;;4.05;;
55423;SDS011;41294;42.666;23.350;2022-08-18T15:44:12;6.07;;;4.57;;
55423;SDS011;41294;42.666;23.350;2022-08-18T15:46:38;4.75;;;4.25;;
55423;SDS011;41294;42.666;23.350;2022-08-18T15:49:04;5.93;;;4.25;;
55423;SDS011;41294;42.666;23.350;2022-08-18T15:51:32;6.75;;;4.70;;
55423;SDS011;41294;42.666;23.350;2022-08-18T15:53:59;6.10;;;4.30;;
55423;SDS011;41294;42.666;23.350;2022-08-18T15:56:24;5.07;;;4.25;;
55423;SDS011;41294;42.666;23.350;2022-08-18T15:58:50;5.90;;;4.60;;
55423;SDS011;41294;42.666;23.350;2022-08-18T16:01:17;5.50;;;4.80;;
55423;SDS011;41294;42.666;23.350;2022-08-18T16:03:45;11.48;;;4.65;;
55423;SDS011;41294;42.666;23.350;2022-08-18T16:06:12;5.55;;;4.40;;
55423;SDS011;41294;42.666;23.350;2022-08-18T16:08:42;8.57;;;4.65;;
55423;SDS011;41294;42.666;23.350;2022-08-18T16:11:09;7.82;;;4.45;;
55423;SDS011;41294;42.666;23.350;2022-08-18T16:13:36;4.63;;;4.22;;
55423;SDS011;41294;42.666;23.350;2022-08-18T16:16:13;9.55;;;4.88;;
55423;SDS011;41294;42.666;23.350;2022-08-18T16:18:40;5.80;;;4.75;;
55423;SDS011;41294;42.666;23.350;2022-08-18T16:21:07;4.93;;;3.90;;
55423;SDS011;41294;42.666;23.350;2022-08-18T16:23:38;5.70;;;4.32;;
55423;SDS011;41294;42.666;23.350;2022-08-18T16:26:08;4.90;;;4.50;;
55423;SDS011;41294;42.666;23.350;2022-08-18T16:28:36;4.68;;;4.28;;
55423;SDS011;41294;42.666;23.350;2022-08-18T16:31:02;9.55;;;4.78;;
55423;SDS011;41294;42.666;23.350;2022-08-18T16:33:30;5.07;;;4.40;;
55423;SDS011;41294;42.666;23.350;2022-08-18T16:36:00;5.03;;;4.63;;
55423;SDS011;41294;42.666;23.350;2022-08-18T16:38:27;6.30;;;4.32;;
55423;SDS011;41294;42.666;23.350;2022-08-18T16:40:53;5.78;;;4.50;;
55423;SDS011;41294;42.666;23.350;2022-08-18T16:43:19;6.30;;;4.60;;
55423;SDS011;41294;42.666;23.350;2022-08-18T16:45:44;5.07;;;4.57;;
55423;SDS011;41294;42.666;23.350;2022-08-18T16:48:11;7.30;;;4.40;;
55423;SDS011;41294;42.666;23.350;2022-08-18T16:50:36;8.60;;;4.68;;
55423;SDS011;41294;42.666;23.350;2022-08-18T16:53:03;6.05;;;4.55;;
55423;SDS011;41294;42.666;23.350;2022-08-18T16:55:29;8.30;;;4.80;;
55423;SDS011;41294;42.666;23.350;2022-08-18T16:57:55;6.07;;;4.60;;
55423;SDS011;41294;42.666;23.350;2022-08-18T17:00:39;4.88;;;4.43;;
55423;SDS011;41294;42.666;23.350;2022-08-18T17:03:23;5.65;;;5.15;;
55423;SDS011;41294;42.666;23.350;2022-08-18T17:06:09;12.70;;;4.95;;
55423;SDS011;41294;42.666;23.350;2022-08-18T17:08:37;7.40;;;5.20;;
55423;SDS011;41294;42.666;23.350;2022-08-18T17:11:04;7.85;;;5.45;;
55423;SDS011;41294;42.666;23.350;2022-08-18T17:13:33;5.05;;;4.65;;
55423;SDS011;41294;42.666;23.350;2022-08-18T17:15:59;5.40;;;4.90;;
55423;SDS011;41294;42.666;23.350;2022-08-18T17:18:26;8.45;;;5.40;;
55423;SDS011;41294;42.666;23.350;2022-08-18T17:20:53;6.53;;;4.78;;